sensor_id;sensor_type;location;lat;lon;timestamp;P1;durP1;ratioP1;P2;durP2;ratioP2
66523;SDS011;53350;52.210;5.160;2023-03-14T00:02:19;22.05;;;4.38;;
66523;SDS011;53350;52.210;5.160;2023-03-14T00:04:46;19.75;;;3.72;;
66523;SDS011;53350;52.210;5.160;2023-03-14T00:07:12;20.23;;;4.40;;
66523;SDS011;53350;52.210;5.160;2023-03-14T00:09:40;16.85;;;3.30;;
66523;SDS011;53350;52.210;5.160;2023-03-14T00:12:07;18.65;;;3.90;;
66523;SDS011;53350;52.210;5.160;2023-03-14T00:14:34;14.10;;;2.80;;
66523;SDS011;53350;52.210;5.160;2023-03-14T00:17:01;18.38;;;3.70;;
66523;SDS011;53350;52.210;5.160;2023-03-14T00:19:27;17.92;;;3.30;;
66523;SDS011;53350;52.210;5.160;2023-03-14T00:21:54;20.73;;;4.05;;
66523;SDS011;53350;52.210;5.160;2023-03-14T00:24:20;16.70;;;3.58;;
66523;SDS011;53350;52.210;5.160;2023-03-14T00:26:48;17.02;;;3.50;;
66523;SDS011;53350;52.210;5.160;2023-03-14T00:29:14;17.63;;;3.67;;
66523;SDS011;53350;52.210;5.160;2023-03-14T00:31:41;17.27;;;3.33;;
66523;SDS011;53350;52.210;5.160;2023-03-14T00:34:07;16.10;;;3.03;;
66523;SDS011;53350;52.210;5.160;2023-03-14T00:36:33;12.98;;;2.22;;
66523;SDS011;53350;52.210;5.160;2023-03-14T00:39:00;21.27;;;3.13;;
66523;SDS011;53350;52.210;5.160;2023-03-14T00:41:26;20.23;;;3.53;;
66523;SDS011;53350;52.210;5.160;2023-03-14T00:43:54;19.75;;;3.42;;
66523;SDS011;53350;52.210;5.160;2023-03-14T00:46:20;19.25;;;3.78;;
66523;SDS011;53350;52.210;5.160;2023-03-14T00:48:47;17.13;;;3.72;;
66523;SDS011;53350;52.210;5.160;2023-03-14T00:51:13;17.45;;;3.50;;
66523;SDS011;53350;52.210;5.160;2023-03-14T00:53:40;18.70;;;4.13;;
66523;SDS011;53350;52.210;5.160;2023-03-14T00:56:08;14.05;;;3.25;;
66523;SDS011;53350;52.210;5.160;2023-03-14T00:58:36;9.18;;;2.95;;
66523;SDS011;53350;52.210;5.160;2023-03-14T01:01:08;17.63;;;4.13;;
66523;SDS011;53350;52.210;5.160;2023-03-14T01:03:35;21.15;;;3.50;;
66523;SDS011;53350;52.210;5.160;2023-03-14T01:06:09;11.30;;;2.20;;
66523;SDS011;53350;52.210;5.160;2023-03-14T01:08:37;18.50;;;3.67;;
66523;SDS011;53350;52.210;5.160;2023-03-14T01:11:07;12.02;;;2.42;;
66523;SDS011;53350;52.210;5.160;2023-03-14T01:13:35;11.40;;;2.58;;
66523;SDS011;53350;52.210;5.160;2023-03-14T01:16:02;16.35;;;2.80;;
66523;SDS011;53350;52.210;5.160;2023-03-14T01:18:31;15.75;;;2.47;;
66523;SDS011;53350;52.210;5.160;2023-03-14T01:20:59;26.15;;;2.63;;
66523;SDS011;53350;52.210;5.160;2023-03-14T01:23:26;13.57;;;2.47;;
66523;SDS011;53350;52.210;5.160;2023-03-14T01:25:52;13.45;;;2.42;;
66523;SDS011;53350;52.210;5.160;2023-03-14T01:28:19;13.50;;;2.58;;
66523;SDS011;53350;52.210;5.160;2023-03-14T01:30:45;13.30;;;2.83;;
66523;SDS011;53350;52.210;5.160;2023-03-14T01:33:12;15.23;;;2.85;;
66523;SDS011;53350;52.210;5.160;2023-03-14T01:35:41;13.27;;;3.53;;
66523;SDS011;53350;52.210;5.160;2023-03-14T01:38:07;11.10;;;2.65;;
66523;SDS011;53350;52.210;5.160;2023-03-14T01:40:33;16.25;;;3.03;;
66523;SDS011;53350;52.210;5.160;2023-03-14T01:43:05;16.15;;;3.70;;
66523;SDS011;53350;52.210;5.160;2023-03-14T01:48:46;17.77;;;3.20;;
66523;SDS011;53350;52.210;5.160;2023-03-14T01:51:20;17.95;;;2.90;;
66523;SDS011;53350;52.210;5.160;2023-03-14T01:53:50;14.70;;;2.85;;
66523;SDS011;53350;52.210;5.160;2023-03-14T01:56:20;16.92;;;2.85;;
66523;SDS011;53350;52.210;5.160;2023-03-14T01:58:48;17.23;;;2.95;;
66523;SDS011;53350;52.210;5.160;2023-03-14T02:01:18;10.52;;;2.22;;
66523;SDS011;53350;52.210;5.160;2023-03-14T02:03:48;18.55;;;3.38;;
66523;SDS011;53350;52.210;5.160;2023-03-14T02:06:21;13.82;;;2.15;;
66523;SDS011;53350;52.210;5.160;2023-03-14T02:08:51;11.90;;;2.30;;
66523;SDS011;53350;52.210;5.160;2023-03-14T02:11:18;12.82;;;2.38;;
66523;SDS011;53350;52.210;5.160;2023-03-14T02:13:45;11.00;;;2.40;;
66523;SDS011;53350;52.210;5.160;2023-03-14T02:16:12;11.20;;;2.40;;
66523;SDS011;53350;52.210;5.160;2023-03-14T02:18:38;19.30;;;3.22;;
66523;SDS011;53350;52.210;5.160;2023-03-14T02:21:05;18.35;;;2.33;;
66523;SDS011;53350;52.210;5.160;2023-03-14T02:23:41;18.55;;;2.75;;
66523;SDS011;53350;52.210;5.160;2023-03-14T02:26:20;13.38;;;2.45;;
66523;SDS011;53350;52.210;5.160;2023-03-14T02:28:50;13.88;;;2.22;;
66523;SDS011;53350;52.210;5.160;2023-03-14T02:31:18;12.45;;;2.67;;
66523;SDS011;53350;52.210;5.160;2023-03-14T02:33:46;12.63;;;1.67;;
66523;SDS011;53350;52.210;5.160;2023-03-14T02:36:13;13.18;;;2.60;;
66523;SDS011;53350;52.210;5.160;2023-03-14T02:38:41;15.85;;;2.45;;
66523;SDS011;53350;52.210;5.160;2023-03-14T02:41:13;16.63;;;2.95;;
66523;SDS011;53350;52.210;5.160;2023-03-14T02:43:39;13.70;;;2.50;;
66523;SDS011;53350;52.210;5.160;2023-03-14T02:46:08;15.70;;;2.38;;
66523;SDS011;53350;52.210;5.160;2023-03-14T02:48:38;11.43;;;2.05;;
66523;SDS011;53350;52.210;5.160;2023-03-14T02:51:07;10.00;;;2.25;;
66523;SDS011;53350;52.210;5.160;2023-03-14T02:53:34;10.93;;;2.70;;
66523;SDS011;53350;52.210;5.160;2023-03-14T02:56:02;11.95;;;2.10;;
66523;SDS011;53350;52.210;5.160;2023-03-14T02:58:29;16.88;;;2.65;;
66523;SDS011;53350;52.210;5.160;2023-03-14T03:00:56;8.20;;;1.70;;
66523;SDS011;53350;52.210;5.160;2023-03-14T03:03:24;9.90;;;1.60;;
66523;SDS011;53350;52.210;5.160;2023-03-14T03:05:50;13.98;;;2.40;;
66523;SDS011;53350;52.210;5.160;2023-03-14T03:08:17;12.18;;;2.03;;
66523;SDS011;53350;52.210;5.160;2023-03-14T03:10:44;15.40;;;2.33;;
66523;SDS011;53350;52.210;5.160;2023-03-14T03:13:11;12.05;;;1.95;;
66523;SDS011;53350;52.210;5.160;2023-03-14T03:15:37;10.15;;;2.42;;
66523;SDS011;53350;52.210;5.160;2023-03-14T03:18:04;14.25;;;2.38;;
66523;SDS011;53350;52.210;5.160;2023-03-14T03:20:32;14.95;;;1.60;;
66523;SDS011;53350;52.210;5.160;2023-03-14T03:22:58;12.45;;;2.28;;
66523;SDS011;53350;52.210;5.160;2023-03-14T03:25:25;12.07;;;2.22;;
66523;SDS011;53350;52.210;5.160;2023-03-14T03:27:52;13.77;;;2.28;;
66523;SDS011;53350;52.210;5.160;2023-03-14T03:30:18;16.88;;;2.30;;
66523;SDS011;53350;52.210;5.160;2023-03-14T03:32:45;19.50;;;2.80;;
66523;SDS011;53350;52.210;5.160;2023-03-14T03:35:12;14.55;;;2.38;;
66523;SDS011;53350;52.210;5.160;2023-03-14T03:37:40;12.85;;;2.53;;
66523;SDS011;53350;52.210;5.160;2023-03-14T03:40:07;12.48;;;2.13;;
66523;SDS011;53350;52.210;5.160;2023-03-14T03:42:35;13.98;;;2.53;;
66523;SDS011;53350;52.210;5.160;2023-03-14T03:45:02;17.83;;;2.78;;
66523;SDS011;53350;52.210;5.160;2023-03-14T03:47:29;15.82;;;2.40;;
66523;SDS011;53350;52.210;5.160;2023-03-14T03:49:56;15.73;;;2.20;;
66523;SDS011;53350;52.210;5.160;2023-03-14T03:52:23;11.52;;;2.03;;
66523;SDS011;53350;52.210;5.160;2023-03-14T03:54:50;11.85;;;2.03;;
66523;SDS011;53350;52.210;5.160;2023-03-14T03:57:17;11.10;;;1.95;;
66523;SDS011;53350;52.210;5.160;2023-03-14T03:59:43;14.77;;;2.92;;
66523;SDS011;53350;52.210;5.160;2023-03-14T04:02:10;16.05;;;2.45;;
66523;SDS011;53350;52.210;5.160;2023-03-14T04:04:36;14.52;;;2.50;;
66523;SDS011;53350;52.210;5.160;2023-03-14T04:07:03;17.65;;;3.33;;
66523;SDS011;53350;52.210;5.160;2023-03-14T04:09:30;12.18;;;1.88;;
66523;SDS011;53350;52.210;5.160;2023-03-14T04:11:58;11.48;;;2.00;;
66523;SDS011;53350;52.210;5.160;2023-03-14T04:14:25;15.15;;;2.92;;
66523;SDS011;53350;52.210;5.160;2023-03-14T04:16:52;11.45;;;1.95;;
66523;SDS011;53350;52.210;5.160;2023-03-14T04:19:18;16.10;;;2.65;;
66523;SDS011;53350;52.210;5.160;2023-03-14T04:21:44;15.13;;;2.72;;
66523;SDS011;53350;52.210;5.160;2023-03-14T04:24:11;12.52;;;2.38;;
66523;SDS011;53350;52.210;5.160;2023-03-14T04:26:38;11.98;;;2.03;;
66523;SDS011;53350;52.210;5.160;2023-03-14T04:29:06;10.73;;;2.22;;
66523;SDS011;53350;52.210;5.160;2023-03-14T04:31:32;17.05;;;2.33;;
66523;SDS011;53350;52.210;5.160;2023-03-14T04:33:59;16.00;;;2.85;;
66523;SDS011;53350;52.210;5.160;2023-03-14T04:36:25;16.05;;;2.38;;
66523;SDS011;53350;52.210;5.160;2023-03-14T04:38:52;19.27;;;2.85;;
66523;SDS011;53350;52.210;5.160;2023-03-14T04:41:18;13.43;;;2.50;;
66523;SDS011;53350;52.210;5.160;2023-03-14T04:43:44;15.00;;;1.95;;
66523;SDS011;53350;52.210;5.160;2023-03-14T04:46:12;14.02;;;2.00;;
66523;SDS011;53350;52.210;5.160;2023-03-14T04:48:38;13.57;;;2.70;;
66523;SDS011;53350;52.210;5.160;2023-03-14T04:51:05;12.27;;;1.83;;
66523;SDS011;53350;52.210;5.160;2023-03-14T04:53:32;11.32;;;1.98;;
66523;SDS011;53350;52.210;5.160;2023-03-14T04:55:59;14.23;;;2.13;;
66523;SDS011;53350;52.210;5.160;2023-03-14T04:58:25;12.20;;;1.90;;
66523;SDS011;53350;52.210;5.160;2023-03-14T05:00:52;12.65;;;2.20;;
66523;SDS011;53350;52.210;5.160;2023-03-14T05:03:19;12.10;;;2.42;;
66523;SDS011;53350;52.210;5.160;2023-03-14T05:05:46;11.73;;;2.38;;
66523;SDS011;53350;52.210;5.160;2023-03-14T05:08:13;15.13;;;2.53;;
66523;SDS011;53350;52.210;5.160;2023-03-14T05:10:39;13.73;;;2.22;;
66523;SDS011;53350;52.210;5.160;2023-03-14T05:13:06;15.38;;;2.60;;
66523;SDS011;53350;52.210;5.160;2023-03-14T05:15:32;11.90;;;2.63;;
66523;SDS011;53350;52.210;5.160;2023-03-14T05:17:58;7.30;;;1.83;;
66523;SDS011;53350;52.210;5.160;2023-03-14T05:20:26;7.00;;;1.58;;
66523;SDS011;53350;52.210;5.160;2023-03-14T05:22:53;14.90;;;2.00;;
66523;SDS011;53350;52.210;5.160;2023-03-14T05:25:19;11.70;;;2.00;;
66523;SDS011;53350;52.210;5.160;2023-03-14T05:27:45;11.93;;;2.05;;
66523;SDS011;53350;52.210;5.160;2023-03-14T05:30:12;16.20;;;2.33;;
66523;SDS011;53350;52.210;5.160;2023-03-14T05:32:39;11.82;;;2.35;;
66523;SDS011;53350;52.210;5.160;2023-03-14T05:35:05;10.82;;;2.05;;
66523;SDS011;53350;52.210;5.160;2023-03-14T05:37:33;10.35;;;2.08;;
66523;SDS011;53350;52.210;5.160;2023-03-14T05:40:00;13.50;;;2.38;;
66523;SDS011;53350;52.210;5.160;2023-03-14T05:42:28;7.57;;;1.90;;
66523;SDS011;53350;52.210;5.160;2023-03-14T05:44:54;11.85;;;2.83;;
66523;SDS011;53350;52.210;5.160;2023-03-14T05:47:20;10.48;;;2.20;;
66523;SDS011;53350;52.210;5.160;2023-03-14T05:49:47;8.63;;;2.30;;
66523;SDS011;53350;52.210;5.160;2023-03-14T05:52:13;8.07;;;2.25;;
66523;SDS011;53350;52.210;5.160;2023-03-14T05:54:42;10.65;;;2.42;;
66523;SDS011;53350;52.210;5.160;2023-03-14T05:57:08;9.80;;;2.13;;
66523;SDS011;53350;52.210;5.160;2023-03-14T05:59:34;7.32;;;2.25;;
66523;SDS011;53350;52.210;5.160;2023-03-14T06:02:01;10.10;;;2.20;;
66523;SDS011;53350;52.210;5.160;2023-03-14T06:04:27;10.27;;;2.47;;
66523;SDS011;53350;52.210;5.160;2023-03-14T06:06:54;11.98;;;2.42;;
66523;SDS011;53350;52.210;5.160;2023-03-14T06:09:20;9.48;;;2.70;;
66523;SDS011;53350;52.210;5.160;2023-03-14T06:11:49;6.33;;;1.80;;
66523;SDS011;53350;52.210;5.160;2023-03-14T06:14:16;7.30;;;2.15;;
66523;SDS011;53350;52.210;5.160;2023-03-14T06:16:42;7.15;;;1.88;;
66523;SDS011;53350;52.210;5.160;2023-03-14T06:19:09;7.78;;;1.90;;
66523;SDS011;53350;52.210;5.160;2023-03-14T06:21:36;4.73;;;1.13;;
66523;SDS011;53350;52.210;5.160;2023-03-14T06:24:03;6.40;;;1.10;;
66523;SDS011;53350;52.210;5.160;2023-03-14T06:26:30;9.07;;;1.20;;
66523;SDS011;53350;52.210;5.160;2023-03-14T06:28:57;5.38;;;0.80;;
66523;SDS011;53350;52.210;5.160;2023-03-14T06:31:28;3.83;;;0.90;;
66523;SDS011;53350;52.210;5.160;2023-03-14T06:33:55;6.13;;;1.00;;
66523;SDS011;53350;52.210;5.160;2023-03-14T06:36:21;3.22;;;0.90;;
66523;SDS011;53350;52.210;5.160;2023-03-14T06:38:48;7.30;;;1.75;;
66523;SDS011;53350;52.210;5.160;2023-03-14T06:41:14;3.25;;;0.90;;
66523;SDS011;53350;52.210;5.160;2023-03-14T06:43:41;4.78;;;1.08;;
66523;SDS011;53350;52.210;5.160;2023-03-14T06:46:09;3.58;;;1.15;;
66523;SDS011;53350;52.210;5.160;2023-03-14T06:48:35;5.38;;;1.45;;
66523;SDS011;53350;52.210;5.160;2023-03-14T06:51:01;5.60;;;1.25;;
66523;SDS011;53350;52.210;5.160;2023-03-14T06:53:28;2.17;;;1.00;;
66523;SDS011;53350;52.210;5.160;2023-03-14T06:55:54;3.83;;;1.00;;
66523;SDS011;53350;52.210;5.160;2023-03-14T06:58:21;5.07;;;1.40;;
66523;SDS011;53350;52.210;5.160;2023-03-14T07:00:47;4.38;;;1.02;;
66523;SDS011;53350;52.210;5.160;2023-03-14T07:03:15;5.40;;;1.40;;
66523;SDS011;53350;52.210;5.160;2023-03-14T07:05:41;5.97;;;1.52;;
66523;SDS011;53350;52.210;5.160;2023-03-14T07:08:08;6.32;;;1.15;;
66523;SDS011;53350;52.210;5.160;2023-03-14T07:10:35;4.85;;;0.80;;
66523;SDS011;53350;52.210;5.160;2023-03-14T07:13:01;2.25;;;0.60;;
66523;SDS011;53350;52.210;5.160;2023-03-14T07:15:27;4.32;;;0.75;;
66523;SDS011;53350;52.210;5.160;2023-03-14T07:17:54;2.95;;;0.82;;
66523;SDS011;53350;52.210;5.160;2023-03-14T07:20:22;5.00;;;0.80;;
66523;SDS011;53350;52.210;5.160;2023-03-14T07:22:48;5.03;;;0.75;;
66523;SDS011;53350;52.210;5.160;2023-03-14T07:25:15;6.20;;;0.80;;
66523;SDS011;53350;52.210;5.160;2023-03-14T07:27:42;5.35;;;1.10;;
66523;SDS011;53350;52.210;5.160;2023-03-14T07:30:10;5.38;;;1.00;;
66523;SDS011;53350;52.210;5.160;2023-03-14T07:32:37;6.70;;;1.20;;
66523;SDS011;53350;52.210;5.160;2023-03-14T07:35:03;5.50;;;0.88;;
66523;SDS011;53350;52.210;5.160;2023-03-14T07:37:32;5.68;;;0.70;;
66523;SDS011;53350;52.210;5.160;2023-03-14T07:39:58;6.60;;;0.73;;
66523;SDS011;53350;52.210;5.160;2023-03-14T07:42:24;3.92;;;0.65;;
66523;SDS011;53350;52.210;5.160;2023-03-14T07:44:51;4.68;;;0.80;;
66523;SDS011;53350;52.210;5.160;2023-03-14T07:47:17;7.90;;;1.15;;
66523;SDS011;53350;52.210;5.160;2023-03-14T07:49:44;4.45;;;1.08;;
66523;SDS011;53350;52.210;5.160;2023-03-14T07:52:11;8.68;;;1.00;;
66523;SDS011;53350;52.210;5.160;2023-03-14T07:54:39;10.73;;;1.35;;
66523;SDS011;53350;52.210;5.160;2023-03-14T07:57:05;8.25;;;0.93;;
66523;SDS011;53350;52.210;5.160;2023-03-14T07:59:31;9.40;;;1.33;;
66523;SDS011;53350;52.210;5.160;2023-03-14T08:01:58;6.28;;;0.90;;
66523;SDS011;53350;52.210;5.160;2023-03-14T08:04:24;7.18;;;1.02;;
66523;SDS011;53350;52.210;5.160;2023-03-14T08:06:52;7.55;;;0.68;;
66523;SDS011;53350;52.210;5.160;2023-03-14T08:09:19;7.78;;;1.88;;
66523;SDS011;53350;52.210;5.160;2023-03-14T08:11:47;8.15;;;0.90;;
66523;SDS011;53350;52.210;5.160;2023-03-14T08:14:13;3.40;;;1.23;;
66523;SDS011;53350;52.210;5.160;2023-03-14T08:16:39;8.18;;;1.20;;
66523;SDS011;53350;52.210;5.160;2023-03-14T08:19:06;5.90;;;1.35;;
66523;SDS011;53350;52.210;5.160;2023-03-14T08:21:32;4.70;;;0.77;;
66523;SDS011;53350;52.210;5.160;2023-03-14T08:23:59;5.15;;;0.60;;
66523;SDS011;53350;52.210;5.160;2023-03-14T08:26:25;3.38;;;0.50;;
66523;SDS011;53350;52.210;5.160;2023-03-14T08:28:53;4.25;;;0.60;;
66523;SDS011;53350;52.210;5.160;2023-03-14T08:31:19;6.18;;;0.80;;
66523;SDS011;53350;52.210;5.160;2023-03-14T08:33:46;6.75;;;1.08;;
66523;SDS011;53350;52.210;5.160;2023-03-14T08:36:12;5.15;;;0.70;;
66523;SDS011;53350;52.210;5.160;2023-03-14T08:38:38;4.57;;;0.85;;
66523;SDS011;53350;52.210;5.160;2023-03-14T08:41:07;3.22;;;0.60;;
66523;SDS011;53350;52.210;5.160;2023-03-14T08:43:34;3.40;;;0.63;;
66523;SDS011;53350;52.210;5.160;2023-03-14T08:46:02;8.23;;;1.05;;
66523;SDS011;53350;52.210;5.160;2023-03-14T08:48:29;9.68;;;1.90;;
66523;SDS011;53350;52.210;5.160;2023-03-14T08:50:56;10.38;;;1.20;;
66523;SDS011;53350;52.210;5.160;2023-03-14T08:53:22;11.80;;;1.38;;
66523;SDS011;53350;52.210;5.160;2023-03-14T08:55:51;9.05;;;1.33;;
66523;SDS011;53350;52.210;5.160;2023-03-14T08:58:18;9.57;;;1.48;;
66523;SDS011;53350;52.210;5.160;2023-03-14T09:00:45;13.80;;;1.83;;
66523;SDS011;53350;52.210;5.160;2023-03-14T09:03:13;8.13;;;2.08;;
66523;SDS011;53350;52.210;5.160;2023-03-14T09:05:39;14.30;;;1.88;;
66523;SDS011;53350;52.210;5.160;2023-03-14T09:08:06;17.13;;;3.20;;
66523;SDS011;53350;52.210;5.160;2023-03-14T09:10:32;16.60;;;2.17;;
66523;SDS011;53350;52.210;5.160;2023-03-14T09:12:58;14.43;;;2.35;;
66523;SDS011;53350;52.210;5.160;2023-03-14T09:15:25;14.57;;;2.50;;
66523;SDS011;53350;52.210;5.160;2023-03-14T09:17:51;13.35;;;2.00;;
66523;SDS011;53350;52.210;5.160;2023-03-14T09:20:19;21.52;;;3.17;;
66523;SDS011;53350;52.210;5.160;2023-03-14T09:22:46;19.43;;;3.13;;
66523;SDS011;53350;52.210;5.160;2023-03-14T09:25:12;8.95;;;1.70;;
66523;SDS011;53350;52.210;5.160;2023-03-14T09:27:39;17.02;;;2.20;;
66523;SDS011;53350;52.210;5.160;2023-03-14T09:30:05;14.60;;;1.92;;
66523;SDS011;53350;52.210;5.160;2023-03-14T09:32:33;9.35;;;1.15;;
66523;SDS011;53350;52.210;5.160;2023-03-14T09:34:59;18.75;;;2.70;;
66523;SDS011;53350;52.210;5.160;2023-03-14T09:37:27;10.85;;;1.90;;
66523;SDS011;53350;52.210;5.160;2023-03-14T09:39:54;12.02;;;1.85;;
66523;SDS011;53350;52.210;5.160;2023-03-14T09:42:21;23.08;;;3.53;;
66523;SDS011;53350;52.210;5.160;2023-03-14T09:44:53;24.00;;;2.53;;
66523;SDS011;53350;52.210;5.160;2023-03-14T09:47:22;17.30;;;2.50;;
66523;SDS011;53350;52.210;5.160;2023-03-14T09:49:49;23.98;;;2.75;;
66523;SDS011;53350;52.210;5.160;2023-03-14T09:52:17;19.73;;;2.95;;
66523;SDS011;53350;52.210;5.160;2023-03-14T09:54:49;13.35;;;1.90;;
66523;SDS011;53350;52.210;5.160;2023-03-14T09:57:18;19.48;;;2.65;;
66523;SDS011;53350;52.210;5.160;2023-03-14T09:59:47;13.52;;;1.88;;
66523;SDS011;53350;52.210;5.160;2023-03-14T10:02:17;14.10;;;2.60;;
66523;SDS011;53350;52.210;5.160;2023-03-14T10:04:45;20.67;;;2.25;;
66523;SDS011;53350;52.210;5.160;2023-03-14T10:07:13;15.13;;;2.35;;
66523;SDS011;53350;52.210;5.160;2023-03-14T10:12:10;16.48;;;1.85;;
66523;SDS011;53350;52.210;5.160;2023-03-14T10:14:38;14.60;;;1.90;;
66523;SDS011;53350;52.210;5.160;2023-03-14T10:17:12;17.83;;;2.72;;
66523;SDS011;53350;52.210;5.160;2023-03-14T10:19:50;21.35;;;2.40;;
66523;SDS011;53350;52.210;5.160;2023-03-14T10:22:18;16.52;;;2.35;;
66523;SDS011;53350;52.210;5.160;2023-03-14T10:24:45;21.48;;;3.13;;
66523;SDS011;53350;52.210;5.160;2023-03-14T10:27:19;10.77;;;1.73;;
66523;SDS011;53350;52.210;5.160;2023-03-14T10:29:51;22.23;;;3.80;;
66523;SDS011;53350;52.210;5.160;2023-03-14T10:32:20;18.40;;;2.75;;
66523;SDS011;53350;52.210;5.160;2023-03-14T10:35:04;17.90;;;2.50;;
66523;SDS011;53350;52.210;5.160;2023-03-14T10:37:47;17.52;;;2.67;;
66523;SDS011;53350;52.210;5.160;2023-03-14T10:40:16;23.17;;;3.03;;
66523;SDS011;53350;52.210;5.160;2023-03-14T10:45:22;20.40;;;3.00;;
66523;SDS011;53350;52.210;5.160;2023-03-14T10:47:57;22.40;;;2.35;;
66523;SDS011;53350;52.210;5.160;2023-03-14T10:50:25;27.55;;;3.13;;
66523;SDS011;53350;52.210;5.160;2023-03-14T10:55:20;22.05;;;2.63;;
66523;SDS011;53350;52.210;5.160;2023-03-14T10:57:48;21.42;;;3.55;;
66523;SDS011;53350;52.210;5.160;2023-03-14T11:00:15;21.23;;;2.78;;
66523;SDS011;53350;52.210;5.160;2023-03-14T11:02:49;19.00;;;2.33;;
66523;SDS011;53350;52.210;5.160;2023-03-14T11:05:27;14.98;;;2.55;;
66523;SDS011;53350;52.210;5.160;2023-03-14T11:08:00;19.27;;;2.95;;
66523;SDS011;53350;52.210;5.160;2023-03-14T11:10:31;14.43;;;1.92;;
66523;SDS011;53350;52.210;5.160;2023-03-14T11:13:03;14.20;;;2.35;;
66523;SDS011;53350;52.210;5.160;2023-03-14T11:15:41;15.65;;;2.63;;
66523;SDS011;53350;52.210;5.160;2023-03-14T11:18:21;19.70;;;3.00;;
66523;SDS011;53350;52.210;5.160;2023-03-14T11:20:58;16.73;;;2.35;;
66523;SDS011;53350;52.210;5.160;2023-03-14T11:23:30;17.83;;;2.17;;
66523;SDS011;53350;52.210;5.160;2023-03-14T11:26:06;17.85;;;2.90;;
66523;SDS011;53350;52.210;5.160;2023-03-14T11:28:47;19.48;;;3.13;;
66523;SDS011;53350;52.210;5.160;2023-03-14T11:31:16;16.67;;;2.17;;
66523;SDS011;53350;52.210;5.160;2023-03-14T11:33:47;16.13;;;1.90;;
66523;SDS011;53350;52.210;5.160;2023-03-14T11:36:24;13.00;;;1.63;;
66523;SDS011;53350;52.210;5.160;2023-03-14T11:38:57;13.90;;;1.80;;
66523;SDS011;53350;52.210;5.160;2023-03-14T11:41:25;14.53;;;2.27;;
66523;SDS011;53350;52.210;5.160;2023-03-14T11:43:58;9.95;;;2.05;;
66523;SDS011;53350;52.210;5.160;2023-03-14T11:46:28;16.10;;;1.90;;
66523;SDS011;53350;52.210;5.160;2023-03-14T11:49:01;14.10;;;2.10;;
66523;SDS011;53350;52.210;5.160;2023-03-14T11:51:33;12.75;;;1.73;;
66523;SDS011;53350;52.210;5.160;2023-03-14T11:54:02;15.23;;;1.90;;
66523;SDS011;53350;52.210;5.160;2023-03-14T11:56:39;19.35;;;1.85;;
66523;SDS011;53350;52.210;5.160;2023-03-14T11:59:14;9.70;;;1.60;;
66523;SDS011;53350;52.210;5.160;2023-03-14T12:01:53;11.25;;;1.50;;
66523;SDS011;53350;52.210;5.160;2023-03-14T12:04:29;10.82;;;1.98;;
66523;SDS011;53350;52.210;5.160;2023-03-14T12:07:05;10.88;;;1.73;;
66523;SDS011;53350;52.210;5.160;2023-03-14T12:09:38;19.85;;;2.22;;
66523;SDS011;53350;52.210;5.160;2023-03-14T12:12:05;11.55;;;1.70;;
66523;SDS011;53350;52.210;5.160;2023-03-14T12:14:39;6.95;;;1.63;;
66523;SDS011;53350;52.210;5.160;2023-03-14T12:17:18;14.43;;;2.13;;
66523;SDS011;53350;52.210;5.160;2023-03-14T12:19:46;8.55;;;1.75;;
66523;SDS011;53350;52.210;5.160;2023-03-14T12:22:24;8.67;;;1.33;;
66523;SDS011;53350;52.210;5.160;2023-03-14T12:24:54;7.35;;;1.48;;
66523;SDS011;53350;52.210;5.160;2023-03-14T12:27:43;8.20;;;1.10;;
66523;SDS011;53350;52.210;5.160;2023-03-14T12:30:25;8.65;;;1.20;;
66523;SDS011;53350;52.210;5.160;2023-03-14T12:36:11;9.27;;;1.40;;
66523;SDS011;53350;52.210;5.160;2023-03-14T12:38:48;9.27;;;1.25;;
66523;SDS011;53350;52.210;5.160;2023-03-14T12:41:37;8.67;;;1.30;;
66523;SDS011;53350;52.210;5.160;2023-03-14T12:50:28;9.10;;;1.45;;
66523;SDS011;53350;52.210;5.160;2023-03-14T12:53:12;13.05;;;1.73;;
66523;SDS011;53350;52.210;5.160;2023-03-14T12:56:05;7.63;;;1.13;;
66523;SDS011;53350;52.210;5.160;2023-03-14T12:58:38;12.35;;;1.50;;
66523;SDS011;53350;52.210;5.160;2023-03-14T13:01:15;9.73;;;1.80;;
66523;SDS011;53350;52.210;5.160;2023-03-14T13:03:45;11.52;;;1.67;;
66523;SDS011;53350;52.210;5.160;2023-03-14T13:09:35;11.55;;;1.50;;
66523;SDS011;53350;52.210;5.160;2023-03-14T13:12:16;7.43;;;1.05;;
66523;SDS011;53350;52.210;5.160;2023-03-14T13:14:43;4.35;;;1.05;;
66523;SDS011;53350;52.210;5.160;2023-03-14T13:17:12;7.63;;;1.50;;
66523;SDS011;53350;52.210;5.160;2023-03-14T13:19:39;4.83;;;1.03;;
66523;SDS011;53350;52.210;5.160;2023-03-14T13:22:15;8.90;;;1.60;;
66523;SDS011;53350;52.210;5.160;2023-03-14T13:24:46;8.98;;;0.90;;
66523;SDS011;53350;52.210;5.160;2023-03-14T13:27:15;8.65;;;1.27;;
66523;SDS011;53350;52.210;5.160;2023-03-14T13:29:45;8.57;;;1.00;;
66523;SDS011;53350;52.210;5.160;2023-03-14T13:32:16;11.75;;;1.35;;
66523;SDS011;53350;52.210;5.160;2023-03-14T13:34:45;9.93;;;1.48;;
66523;SDS011;53350;52.210;5.160;2023-03-14T13:37:16;15.18;;;1.42;;
66523;SDS011;53350;52.210;5.160;2023-03-14T13:39:48;11.55;;;1.70;;
66523;SDS011;53350;52.210;5.160;2023-03-14T13:42:15;9.25;;;1.50;;
66523;SDS011;53350;52.210;5.160;2023-03-14T13:44:43;10.15;;;1.77;;
66523;SDS011;53350;52.210;5.160;2023-03-14T13:47:11;11.88;;;2.03;;
66523;SDS011;53350;52.210;5.160;2023-03-14T13:49:40;12.10;;;1.70;;
66523;SDS011;53350;52.210;5.160;2023-03-14T13:52:22;10.43;;;1.52;;
66523;SDS011;53350;52.210;5.160;2023-03-14T13:54:52;14.18;;;2.03;;
66523;SDS011;53350;52.210;5.160;2023-03-14T13:57:19;13.57;;;1.90;;
66523;SDS011;53350;52.210;5.160;2023-03-14T13:59:46;10.43;;;1.67;;
66523;SDS011;53350;52.210;5.160;2023-03-14T14:02:25;13.73;;;1.65;;
66523;SDS011;53350;52.210;5.160;2023-03-14T14:04:53;12.10;;;1.85;;
66523;SDS011;53350;52.210;5.160;2023-03-14T14:07:19;7.90;;;1.30;;
66523;SDS011;53350;52.210;5.160;2023-03-14T14:09:48;8.73;;;1.10;;
66523;SDS011;53350;52.210;5.160;2023-03-14T14:12:16;10.05;;;1.40;;
66523;SDS011;53350;52.210;5.160;2023-03-14T14:14:48;9.05;;;1.83;;
66523;SDS011;53350;52.210;5.160;2023-03-14T14:17:18;9.82;;;1.35;;
66523;SDS011;53350;52.210;5.160;2023-03-14T14:19:47;6.80;;;0.88;;
66523;SDS011;53350;52.210;5.160;2023-03-14T14:22:14;9.73;;;1.50;;
66523;SDS011;53350;52.210;5.160;2023-03-14T14:24:41;10.10;;;1.15;;
66523;SDS011;53350;52.210;5.160;2023-03-14T14:27:12;8.32;;;1.20;;
66523;SDS011;53350;52.210;5.160;2023-03-14T14:29:41;12.13;;;1.20;;
66523;SDS011;53350;52.210;5.160;2023-03-14T14:32:11;3.97;;;1.10;;
66523;SDS011;53350;52.210;5.160;2023-03-14T14:34:39;10.32;;;1.30;;
66523;SDS011;53350;52.210;5.160;2023-03-14T14:37:17;7.53;;;1.40;;
66523;SDS011;53350;52.210;5.160;2023-03-14T14:39:47;10.65;;;1.52;;
66523;SDS011;53350;52.210;5.160;2023-03-14T14:42:16;9.48;;;1.60;;
66523;SDS011;53350;52.210;5.160;2023-03-14T14:44:47;19.80;;;1.60;;
66523;SDS011;53350;52.210;5.160;2023-03-14T14:47:17;12.52;;;2.55;;
66523;SDS011;53350;52.210;5.160;2023-03-14T14:49:47;8.88;;;1.60;;
66523;SDS011;53350;52.210;5.160;2023-03-14T14:52:14;6.70;;;1.13;;
66523;SDS011;53350;52.210;5.160;2023-03-14T14:54:43;5.35;;;0.85;;
66523;SDS011;53350;52.210;5.160;2023-03-14T14:57:18;8.35;;;1.30;;
66523;SDS011;53350;52.210;5.160;2023-03-14T14:59:47;14.90;;;1.70;;
66523;SDS011;53350;52.210;5.160;2023-03-14T15:02:27;6.28;;;0.98;;
66523;SDS011;53350;52.210;5.160;2023-03-14T15:04:55;3.95;;;0.85;;
66523;SDS011;53350;52.210;5.160;2023-03-14T15:07:22;9.20;;;1.30;;
66523;SDS011;53350;52.210;5.160;2023-03-14T15:09:48;9.48;;;1.23;;
66523;SDS011;53350;52.210;5.160;2023-03-14T15:12:15;6.03;;;1.08;;